Time;durP1;ratioP1;P1;durP2;ratioP2;P2;SDS_P1;SDS_P2;PMS_P1;PMS_P2;Temp;Humidity;BMP_temperature;BMP_pressure;BME280_temperature;BME280_humidity;BME280_pressure;Samples;Min_cycle;Max_cycle;Signal;HPM_P1;HPM_P2
2022/02/07 00:04:57;;;;;;;1.88;0.60;;;17.70;66.80;;;;;;10372114;28;20026;-58
2022/02/07 00:09:57;;;;;;;1.02;0.70;;;17.70;66.70;;;;;;10373139;28;20117;-58
2022/02/07 00:14:58;;;;;;;3.13;0.80;;;17.70;66.60;;;;;;10375471;28;20064;-58
2022/02/07 00:20:00;;;;;;;0.85;0.60;;;17.70;66.50;;;;;;10392920;28;20026;-58
2022/02/07 00:25:00;;;;;;;2.50;0.60;;;17.70;66.50;;;;;;10402473;28;20030;-58
2022/02/07 00:30:04;;;;;;;1.88;0.60;;;17.70;66.40;;;;;;10428245;28;20413;-59
2022/02/07 00:35:09;;;;;;;1.42;0.65;;;17.70;66.50;;;;;;10411952;28;20114;-58
2022/02/07 00:45:25;;;;;;;2.05;0.82;;;17.80;66.30;;;;;;10412718;28;20087;-57
2022/02/07 00:50:29;;;;;;;1.98;0.55;;;17.80;66.30;;;;;;10412027;28;20405;-58
2022/02/07 00:55:30;;;;;;;2.13;0.73;;;17.70;66.30;;;;;;10411660;28;20044;-58
2022/02/07 01:00:31;;;;;;;2.92;0.82;;;17.70;66.20;;;;;;10412447;28;20037;-58
2022/02/07 01:05:32;;;;;;;1.15;0.60;;;17.70;66.30;;;;;;10394783;28;20036;-58
2022/02/07 01:10:50;;;;;;;0.70;0.32;;;17.70;66.30;;;;;;10411223;28;20041;-58
2022/02/07 01:53:08;;;;;;;1.00;0.45;;;17.80;65.90;;;;;;10418556;28;20037;-57
2022/02/07 01:58:11;;;;;;;1.05;0.40;;;17.80;65.70;;;;;;10417801;28;20055;-58
2022/02/07 02:03:12;;;;;;;1.10;0.40;;;17.80;65.70;;;;;;10417391;28;20029;-58
2022/02/07 02:08:18;;;;;;;1.05;0.38;;;17.80;65.90;;;;;;10417287;28;20021;-58
2022/02/07 02:13:24;;;;;;;0.90;0.50;;;17.80;65.80;;;;;;10433462;28;20482;-58
2022/02/07 02:34:59;;;;;;;1.02;0.63;;;17.70;65.80;;;;;;10436008;28;20029;-58
2022/02/07 02:50:10;;;;;;;1.33;0.30;;;17.80;65.30;;;;;;10415947;28;20099;-58
2022/02/07 02:55:10;;;;;;;0.80;0.40;;;17.80;65.30;;;;;;10430227;28;20048;-57
2022/02/07 03:00:12;;;;;;;1.08;0.30;;;17.80;65.40;;;;;;10407312;28;20029;-58
2022/02/07 03:05:15;;;;;;;1.60;0.52;;;17.80;65.40;;;;;;10415270;28;20454;-58
2022/02/07 03:21:05;;;;;;;1.35;0.30;;;17.70;65.40;;;;;;10416017;28;20112;-58
2022/02/07 03:26:05;;;;;;;0.90;0.40;;;17.80;65.40;;;;;;10414159;28;20512;-58
2022/02/07 03:31:07;;;;;;;1.23;0.52;;;17.80;65.40;;;;;;10414587;28;20058;-58
2022/02/07 03:36:08;;;;;;;0.70;0.40;;;17.70;65.30;;;;;;10465972;28;20033;-58
2022/02/07 03:41:09;;;;;;;1.00;0.32;;;17.80;65.40;;;;;;10453337;28;20028;-58
2022/02/07 03:46:10;;;;;;;2.65;0.55;;;17.80;65.30;;;;;;10389001;28;20059;-58
2022/02/07 03:51:11;;;;;;;1.90;0.32;;;17.70;65.30;;;;;;10372350;28;20061;-58
2022/02/07 03:56:12;;;;;;;1.38;0.40;;;17.80;65.20;;;;;;10374981;28;20030;-59
2022/02/07 04:01:13;;;;;;;0.70;0.30;;;17.80;65.30;;;;;;10413966;28;20104;-58
2022/02/07 04:06:17;;;;;;;1.13;0.50;;;17.80;65.20;;;;;;10414236;28;20044;-58
2022/02/07 04:11:27;;;;;;;1.75;0.40;;;17.70;65.20;;;;;;10413553;28;20028;-58
2022/02/07 04:16:34;;;;;;;1.63;0.50;;;17.80;65.20;;;;;;10412549;28;20044;-58
2022/02/07 04:21:37;;;;;;;1.05;0.40;;;17.70;65.10;;;;;;10428263;28;20025;-58
2022/02/07 04:26:38;;;;;;;0.57;0.30;;;17.80;65.10;;;;;;10411174;28;20025;-58
2022/02/07 04:31:39;;;;;;;0.90;0.45;;;17.80;65.10;;;;;;10411835;28;20030;-58
2022/02/07 04:36:45;;;;;;;1.75;0.50;;;17.80;65.00;;;;;;10451968;28;20033;-59
2022/02/07 04:41:45;;;;;;;1.05;0.40;;;17.70;65.00;;;;;;10463466;28;20594;-59
2022/02/07 04:52:58;;;;;;;2.33;0.55;;;17.80;65.00;;;;;;10385946;28;20044;-58
2022/02/07 04:57:50;;;;;;;2.83;0.47;;;17.80;64.90;;;;;;10425283;28;20100;-58
2022/02/07 05:03:03;;;;;;;0.65;0.50;;;17.80;64.90;;;;;;10411391;28;20502;-58
2022/02/07 05:18:48;;;;;;;1.27;0.47;;;17.80;64.70;;;;;;10419776;28;20485;-58
2022/02/07 05:23:50;;;;;;;0.68;0.30;;;17.80;64.70;;;;;;10434914;28;20053;-58
2022/02/07 05:28:52;;;;;;;2.20;0.70;;;17.80;64.60;;;;;;10417673;28;20049;-58
2022/02/07 05:33:52;;;;;;;3.28;0.60;;;17.80;64.70;;;;;;10427102;28;20025;-58
2022/02/07 05:38:57;;;;;;;0.88;0.40;;;17.80;64.60;;;;;;10419633;28;20025;-59
2022/02/07 05:43:58;;;;;;;2.92;0.75;;;17.70;64.50;;;;;;10418744;28;20038;-58
2022/02/07 05:48:58;;;;;;;1.40;0.30;;;17.70;64.80;;;;;;10416628;28;20113;-58
2022/02/07 05:53:59;;;;;;;1.63;0.50;;;17.80;64.70;;;;;;10421632;28;20022;-57
2022/02/07 05:59:00;;;;;;;1.60;0.52;;;17.80;64.60;;;;;;10418732;28;20045;-57
2022/02/07 06:04:00;;;;;;;2.90;0.80;;;17.80;64.70;;;;;;10401144;28;20032;-56
2022/02/07 06:09:02;;;;;;;3.58;0.95;;;17.80;65.10;;;;;;10376184;28;20136;-58
2022/02/07 06:14:03;;;;;;;5.57;0.90;;;17.80;66.00;;;;;;10376279;28;20470;-58
2022/02/07 06:19:04;;;;;;;4.78;0.80;;;17.80;66.30;;;;;;10404658;28;20038;-59
2022/02/07 06:24:06;;;;;;;6.07;1.25;;;17.90;66.40;;;;;;10399813;28;20029;-57
2022/02/07 06:29:07;;;;;;;6.43;1.05;;;17.90;66.20;;;;;;10423077;28;20048;-58
2022/02/07 06:34:08;;;;;;;8.55;0.88;;;17.90;66.10;;;;;;10413537;28;20120;-57
2022/02/07 06:39:09;;;;;;;8.75;1.45;;;18.00;66.50;;;;;;10415496;28;20068;-57
2022/02/07 06:44:10;;;;;;;7.57;0.90;;;18.00;67.30;;;;;;10392387;28;20457;-57
2022/02/07 06:49:10;;;;;;;6.95;1.10;;;17.90;67.50;;;;;;10415143;28;20385;-57
2022/02/07 06:54:11;;;;;;;7.97;1.48;;;17.80;67.50;;;;;;10421128;28;20119;-57
2022/02/07 06:59:16;;;;;;;7.65;1.60;;;17.80;67.00;;;;;;10438718;28;20468;-57
2022/02/07 07:04:17;;;;;;;8.95;1.35;;;17.80;66.60;;;;;;10396231;28;20030;-57
2022/02/07 07:09:17;;;;;;;8.63;1.15;;;17.80;66.50;;;;;;10413775;28;20033;-58
2022/02/07 07:14:29;;;;;;;8.40;1.60;;;17.80;66.50;;;;;;10410581;28;20702;-58
2022/02/07 07:19:30;;;;;;;11.82;1.48;;;17.80;66.60;;;;;;10412407;28;20025;-57
2022/02/07 07:24:35;;;;;;;13.07;2.08;;;17.70;65.80;;;;;;10411893;28;20116;-57
2022/02/07 07:29:39;;;;;;;11.27;1.52;;;17.60;65.70;;;;;;10427812;28;20069;-57
2022/02/07 07:34:40;;;;;;;7.57;1.40;;;17.60;65.90;;;;;;10435035;28;20358;-57
2022/02/07 07:39:42;;;;;;;9.30;1.58;;;17.50;66.10;;;;;;10455464;28;20104;-56
2022/02/07 07:44:44;;;;;;;9.75;1.55;;;17.50;66.00;;;;;;10439599;28;20026;-56
2022/02/07 07:49:57;;;;;;;6.47;1.52;;;17.50;66.10;;;;;;10412300;28;20488;-55
2022/02/07 07:55:25;;;;;;;8.95;2.70;;;17.70;66.00;;;;;;10413853;28;20424;-57
2022/02/07 08:05:55;;;;;;;11.80;2.03;;;17.60;66.00;;;;;;10453474;28;20045;-56
2022/02/07 08:15:59;;;;;;;7.45;1.58;;;17.50;66.00;;;;;;10454447;28;20033;-56
2022/02/07 08:21:00;;;;;;;13.63;2.72;;;17.50;65.90;;;;;;10453382;28;20377;-56
2022/02/07 08:26:03;;;;;;;15.02;2.72;;;17.50;65.50;;;;;;10454137;28;20028;-56
2022/02/07 08:31:04;;;;;;;9.55;2.38;;;17.50;64.70;;;;;;10452513;28;20040;-56
2022/02/07 08:36:05;;;;;;;10.98;2.50;;;17.50;64.20;;;;;;10469438;28;20033;-56
2022/02/07 08:41:06;;;;;;;9.52;2.42;;;17.50;64.30;;;;;;10453274;28;20025;-55
2022/02/07 08:46:08;;;;;;;7.93;2.58;;;17.50;64.50;;;;;;10416446;28;20037;-55
2022/02/07 08:51:09;;;;;;;6.15;2.00;;;17.60;64.60;;;;;;10420393;28;20033;-56
2022/02/07 08:56:11;;;;;;;13.45;2.83;;;17.60;64.70;;;;;;10420108;28;20489;-56
2022/02/07 09:01:20;;;;;;;8.15;1.80;;;17.60;64.90;;;;;;10419161;28;20032;-56
2022/02/07 09:11:23;;;;;;;9.10;1.73;;;17.50;65.30;;;;;;10418098;28;19913;-56
2022/02/07 09:16:31;;;;;;;8.65;2.25;;;17.40;65.60;;;;;;10418023;28;20087;-57
2022/02/07 09:21:32;;;;;;;10.73;2.70;;;17.40;65.50;;;;;;10418421;28;20092;-56
2022/02/07 09:26:33;;;;;;;9.45;2.03;;;17.40;66.30;;;;;;10418033;28;20366;-56
2022/02/07 09:31:34;;;;;;;11.40;2.05;;;17.40;66.90;;;;;;10417661;28;20079;-55
2022/02/07 09:36:35;;;;;;;19.27;3.92;;;17.30;67.20;;;;;;10417051;28;20476;-57
2022/02/07 09:41:36;;;;;;;27.73;3.13;;;17.40;67.50;;;;;;10400140;28;20490;-57
2022/02/07 09:46:43;;;;;;;9.75;1.80;;;17.40;67.50;;;;;;10417321;28;20045;-56
2022/02/07 09:51:47;;;;;;;10.07;1.83;;;17.30;67.80;;;;;;10416957;28;20034;-56
2022/02/07 09:56:50;;;;;;;11.73;1.95;;;17.40;67.90;;;;;;10429066;28;20040;-56
2022/02/07 10:01:53;;;;;;;11.88;2.53;;;17.40;67.90;;;;;;10416709;28;20026;-56
2022/02/07 10:43:46;;;;;;;19.60;3.72;;;17.10;67.80;;;;;;10409835;28;20034;-51
2022/02/07 10:48:53;;;;;;;31.52;4.70;;;17.10;67.60;;;;;;10400577;28;20034;-55
2022/02/07 10:54:02;;;;;;;24.90;4.18;;;17.20;67.80;;;;;;10415036;28;20037;-55
2022/02/07 10:59:08;;;;;;;22.17;3.50;;;17.20;67.80;;;;;;10415867;28;20036;-55
2022/02/07 11:04:13;;;;;;;32.42;5.55;;;17.20;67.10;;;;;;10414552;28;20490;-54
2022/02/07 11:20:08;;;;;;;26.60;5.22;;;17.20;68.40;;;;;;10428326;28;20041;-56
2022/02/07 11:30:43;;;;;;;17.75;3.35;;;17.10;68.10;;;;;;10429832;28;20076;-55
2022/02/07 11:35:51;;;;;;;14.55;3.78;;;17.20;67.80;;;;;;10445612;28;20029;-55
2022/02/07 11:41:04;;;;;;;22.98;4.22;;;17.20;68.20;;;;;;10454156;28;20029;-54
2022/02/07 11:46:10;;;;;;;15.95;4.75;;;17.30;68.60;;;;;;10373604;28;20026;-55
2022/02/07 11:51:13;;;;;;;15.15;2.92;;;17.40;68.30;;;;;;10373094;28;20044;-53
2022/02/07 12:02:02;;;;;;;14.02;4.28;;;17.30;68.20;;;;;;10373917;28;20038;-54
2022/02/07 12:07:16;;;;;;;9.30;2.65;;;17.30;68.40;;;;;;10389182;28;20029;-57
2022/02/07 12:12:45;;;;;;;20.67;2.92;;;17.30;67.90;;;;;;10411921;28;20065;-56
2022/02/07 12:17:58;;;;;;;12.70;3.35;;;17.30;67.90;;;;;;10409456;28;20045;-56
2022/02/07 12:23:10;;;;;;;13.13;2.72;;;17.20;67.70;;;;;;10412516;28;20036;-54
2022/02/07 12:28:18;;;;;;;15.95;3.50;;;17.20;67.50;;;;;;10413276;28;20129;-56
2022/02/07 12:33:22;;;;;;;10.45;3.03;;;17.20;68.00;;;;;;10424725;28;20049;-54
2022/02/07 12:38:25;;;;;;;16.67;2.95;;;17.20;67.30;;;;;;10453400;28;20028;-53
2022/02/07 12:43:26;;;;;;;18.35;3.80;;;17.20;67.10;;;;;;10434293;28;20087;-55
2022/02/07 12:48:33;;;;;;;13.63;2.72;;;17.20;67.50;;;;;;10411444;28;20038;-55
2022/02/07 12:53:36;;;;;;;15.05;2.30;;;17.10;67.00;;;;;;10395100;28;20120;-54
2022/02/07 12:58:42;;;;;;;12.80;3.30;;;17.10;66.90;;;;;;10411284;28;20030;-53
2022/02/07 13:04:04;;;;;;;7.90;2.25;;;17.00;66.80;;;;;;10411268;28;20033;-54
2022/02/07 13:09:18;;;;;;;10.70;2.53;;;17.00;66.70;;;;;;10407869;28;20029;-53
2022/02/07 13:14:19;;;;;;;8.45;2.40;;;17.00;66.60;;;;;;10407868;28;20029;-54
2022/02/07 13:19:21;;;;;;;9.05;1.90;;;17.00;66.60;;;;;;10408981;28;20072;-55
2022/02/07 13:24:30;;;;;;;7.57;2.10;;;17.00;66.50;;;;;;10412054;28;20104;-54
2022/02/07 13:29:45;;;;;;;9.25;2.70;;;17.10;66.30;;;;;;10411678;28;20045;-56
2022/02/07 13:34:47;;;;;;;14.27;3.10;;;17.10;66.00;;;;;;10442370;28;20032;-56
2022/02/07 13:40:11;;;;;;;17.55;4.30;;;17.20;65.90;;;;;;10444467;28;20116;-56
2022/02/07 13:45:23;;;;;;;12.10;2.78;;;17.20;65.70;;;;;;10418277;28;20029;-56
2022/02/07 13:50:27;;;;;;;15.07;3.38;;;17.30;65.80;;;;;;10402331;28;20076;-57
2022/02/07 13:55:39;;;;;;;11.30;2.80;;;17.40;65.60;;;;;;10417454;28;20030;-56
2022/02/07 14:00:49;;;;;;;13.48;3.30;;;17.50;65.60;;;;;;10417625;28;20132;-55
2022/02/07 14:05:52;;;;;;;;;;;17.40;65.70;;;;;;10419219;28;20070;-56
2022/02/07 14:10:53;;;;;;;14.07;3.28;;;17.40;66.60;;;;;;10417037;28;19913;-54
2022/02/07 14:15:54;;;;;;;16.50;2.70;;;17.30;66.50;;;;;;10417052;28;20116;-55
2022/02/07 14:20:55;;;;;;;19.10;3.92;;;17.30;66.90;;;;;;10447498;28;20025;-56
2022/02/07 14:26:00;;;;;;;15.20;3.83;;;17.30;68.20;;;;;;10457539;28;20033;-54
2022/02/07 14:31:02;;;;;;;10.65;3.22;;;17.30;67.10;;;;;;10458489;28;20496;-55
2022/02/07 14:36:02;;;;;;;15.27;3.22;;;17.30;67.40;;;;;;10456547;28;20081;-56
2022/02/07 14:41:06;;;;;;;12.65;2.55;;;17.20;67.20;;;;;;10457040;28;20154;-56
2022/02/07 14:46:09;;;;;;;8.23;2.20;;;17.20;67.30;;;;;;10414832;28;20029;-56
2022/02/07 14:51:10;;;;;;;9.35;2.50;;;17.10;67.20;;;;;;10414804;28;20033;-56
2022/02/07 14:56:11;;;;;;;10.40;2.65;;;17.10;66.70;;;;;;10416278;28;20028;-54
2022/02/07 15:01:12;;;;;;;7.07;2.47;;;17.10;66.60;;;;;;10416253;28;20112;-53
2022/02/07 15:06:13;;;;;;;11.77;2.25;;;17.10;66.40;;;;;;10414404;28;20359;-55
2022/02/07 15:11:16;;;;;;;9.25;2.13;;;17.10;66.40;;;;;;10414346;28;20120;-55
2022/02/07 15:16:17;;;;;;;11.98;2.78;;;17.10;66.20;;;;;;10415494;28;20025;-55
2022/02/07 15:21:17;;;;;;;8.75;2.03;;;17.20;66.10;;;;;;10413862;28;20029;-55
2022/02/07 15:26:22;;;;;;;11.10;2.58;;;17.20;66.10;;;;;;10415076;28;20029;-55
2022/02/07 15:31:29;;;;;;;5.60;1.75;;;17.30;65.90;;;;;;10413491;28;20494;-54
2022/02/07 15:36:30;;;;;;;3.58;1.38;;;17.30;65.70;;;;;;10453110;28;20025;-55
2022/02/07 15:41:30;;;;;;;5.70;2.25;;;17.20;65.70;;;;;;10450066;28;20083;-55
2022/02/07 15:46:32;;;;;;;4.75;1.55;;;17.30;65.60;;;;;;10412729;28;20063;-55
2022/02/07 15:51:33;;;;;;;9.30;1.75;;;17.30;65.50;;;;;;10414020;28;20037;-55
2022/02/07 15:56:34;;;;;;;5.78;1.35;;;17.30;65.50;;;;;;10413307;28;20462;-56
2022/02/07 16:01:35;;;;;;;7.75;1.40;;;17.30;65.40;;;;;;10412780;28;20052;-56
2022/02/07 16:06:35;;;;;;;9.18;2.63;;;17.30;65.20;;;;;;10413857;28;20029;-56
2022/02/07 16:11:37;;;;;;;18.88;2.50;;;17.30;66.00;;;;;;10413347;28;20025;-56
2022/02/07 16:16:38;;;;;;;12.25;2.00;;;17.40;66.40;;;;;;10413249;28;20095;-55
2022/02/07 16:21:39;;;;;;;12.38;2.45;;;17.40;66.60;;;;;;10412229;28;20373;-56
2022/02/07 16:26:40;;;;;;;12.55;3.35;;;17.40;66.70;;;;;;10412916;28;20033;-55
2022/02/07 16:31:41;;;;;;;12.07;3.33;;;17.50;66.90;;;;;;10395282;28;20052;-55
2022/02/07 16:36:43;;;;;;;15.07;3.03;;;17.50;67.20;;;;;;10451543;28;20035;-55
2022/02/07 16:41:44;;;;;;;18.50;3.35;;;17.60;67.30;;;;;;10429768;28;20022;-56
2022/02/07 16:46:48;;;;;;;11.50;2.58;;;17.50;67.40;;;;;;10410440;28;20021;-55
2022/02/07 16:51:52;;;;;;;13.40;2.22;;;17.50;67.50;;;;;;10411784;28;20055;-55
2022/02/07 16:56:57;;;;;;;14.77;3.58;;;17.50;67.60;;;;;;10412138;28;20029;-56
2022/02/07 17:02:00;;;;;;;10.02;3.42;;;17.50;67.40;;;;;;10394578;28;20287;-55
2022/02/07 17:07:05;;;;;;;11.98;3.53;;;17.40;66.50;;;;;;10412363;28;20025;-56
2022/02/07 17:12:07;;;;;;;15.20;2.97;;;17.40;66.20;;;;;;10419862;28;20489;-56
2022/02/07 17:17:08;;;;;;;11.40;2.30;;;17.50;65.70;;;;;;10418678;28;20030;-56
2022/02/07 17:22:13;;;;;;;12.52;2.42;;;17.60;68.70;;;;;;10418787;28;20033;-56
2022/02/07 17:27:14;;;;;;;13.32;2.58;;;17.80;68.30;;;;;;10434821;28;20053;-55
2022/02/07 17:32:14;;;;;;;8.02;1.95;;;17.80;67.50;;;;;;10420508;28;20029;-56
2022/02/07 17:37:15;;;;;;;13.68;3.00;;;17.80;67.90;;;;;;10445554;28;20117;-54
2022/02/07 17:42:23;;;;;;;13.45;2.72;;;17.80;68.30;;;;;;10418278;28;20030;-56
2022/02/07 17:47:24;;;;;;;11.55;3.03;;;17.80;68.20;;;;;;10417687;28;20366;-55
2022/02/07 17:52:25;;;;;;;11.38;2.65;;;17.90;68.00;;;;;;10412266;28;20124;-56
2022/02/07 17:57:26;;;;;;;17.08;2.28;;;17.80;68.30;;;;;;10392690;28;20022;-56
2022/02/07 18:02:27;;;;;;;8.35;2.80;;;17.70;68.10;;;;;;10393095;28;20053;-56
2022/02/07 18:07:27;;;;;;;18.48;3.53;;;17.60;68.30;;;;;;10434392;28;20450;-55
2022/02/07 18:12:28;;;;;;;19.63;2.60;;;17.60;68.50;;;;;;10413966;28;20068;-55
2022/02/07 18:17:29;;;;;;;12.75;2.88;;;17.50;68.50;;;;;;10416634;28;20381;-55
2022/02/07 18:22:29;;;;;;;18.13;3.20;;;17.50;68.70;;;;;;10418120;28;20033;-54
2022/02/07 18:27:30;;;;;;;16.08;2.33;;;17.50;68.90;;;;;;10416399;28;20053;-55
2022/02/07 18:32:32;;;;;;;11.50;3.45;;;17.40;68.90;;;;;;10420349;28;20163;-55
2022/02/07 18:37:33;;;;;;;9.63;2.85;;;17.40;68.70;;;;;;10432494;28;20033;-55
2022/02/07 18:42:36;;;;;;;12.43;2.72;;;17.40;68.50;;;;;;10413701;28;20421;-56
2022/02/07 18:47:36;;;;;;;12.85;2.95;;;17.50;68.50;;;;;;10400405;28;20112;-56
2022/02/07 18:52:37;;;;;;;8.00;2.65;;;17.50;68.80;;;;;;10410506;28;20565;-55
2022/02/07 18:57:42;;;;;;;7.55;2.30;;;17.60;68.70;;;;;;10399286;28;20397;-56
2022/02/07 19:02:54;;;;;;;8.07;2.42;;;17.60;68.90;;;;;;10413730;28;20067;-56
2022/02/07 19:07:56;;;;;;;9.90;2.20;;;17.50;69.00;;;;;;10413475;28;20028;-56
2022/02/07 19:12:57;;;;;;;7.97;2.08;;;17.50;69.20;;;;;;10414779;28;20489;-56
2022/02/07 19:18:00;;;;;;;10.57;2.15;;;17.50;69.50;;;;;;10415624;28;20108;-56
2022/02/07 19:23:01;;;;;;;7.38;2.25;;;17.50;69.40;;;;;;10411934;28;20056;-56
2022/02/07 19:28:13;;;;;;;8.43;2.58;;;17.50;69.60;;;;;;10409986;28;20106;-54
2022/02/07 19:33:13;;;;;;;10.38;2.47;;;17.50;69.70;;;;;;10412841;28;20038;-56
2022/02/07 19:38:14;;;;;;;4.97;1.60;;;17.50;69.60;;;;;;10413742;28;20026;-56
2022/02/07 19:43:22;;;;;;;9.10;2.08;;;17.50;69.60;;;;;;10414683;28;20393;-56
2022/02/07 19:48:23;;;;;;;7.75;1.75;;;17.50;69.60;;;;;;10415038;28;20029;-56
2022/02/07 19:53:24;;;;;;;6.90;1.88;;;17.50;69.70;;;;;;10429534;28;20025;-56
2022/02/07 19:58:25;;;;;;;7.35;2.35;;;17.50;69.60;;;;;;10412702;28;20473;-55
2022/02/07 20:03:30;;;;;;;6.32;1.90;;;17.50;69.70;;;;;;10401388;28;20437;-56
2022/02/07 20:08:32;;;;;;;5.82;2.00;;;17.50;69.70;;;;;;10411636;28;20036;-55
2022/02/07 20:13:39;;;;;;;7.22;1.90;;;17.50;69.70;;;;;;10412135;28;20354;-56
2022/02/07 20:18:40;;;;;;;3.08;1.23;;;17.50;69.70;;;;;;10409578;28;20048;-55
2022/02/07 20:23:41;;;;;;;8.25;1.67;;;17.50;69.70;;;;;;10410428;28;20039;-55
2022/02/07 20:28:41;;;;;;;10.57;1.58;;;17.50;69.70;;;;;;10410204;28;20079;-54
2022/02/07 20:33:43;;;;;;;5.47;1.50;;;17.40;69.60;;;;;;10420863;28;20074;-54
2022/02/07 20:38:44;;;;;;;9.73;2.03;;;17.50;69.70;;;;;;10410033;28;20029;-54
2022/02/07 20:43:44;;;;;;;5.47;1.63;;;17.40;69.60;;;;;;10426162;28;20437;-53
2022/02/07 20:48:50;;;;;;;5.30;1.20;;;17.50;69.60;;;;;;10411081;28;20516;-54
2022/02/07 20:53:51;;;;;;;4.32;1.35;;;17.40;69.40;;;;;;10413061;28;20021;-55
2022/02/07 20:58:52;;;;;;;5.55;1.30;;;17.40;69.30;;;;;;10410925;28;20029;-54
2022/02/07 21:04:02;;;;;;;6.53;1.25;;;17.40;69.20;;;;;;10428440;28;20038;-54
2022/02/07 21:09:09;;;;;;;5.35;1.45;;;17.40;69.10;;;;;;10402024;28;20119;-54
2022/02/07 21:14:12;;;;;;;4.10;1.20;;;17.40;69.00;;;;;;10427752;28;20029;-54
2022/02/07 21:19:13;;;;;;;6.28;1.80;;;17.50;69.00;;;;;;10412703;28;20037;-54
2022/02/07 21:24:14;;;;;;;3.15;1.02;;;17.50;68.90;;;;;;10411258;28;20470;-54
2022/02/07 21:29:15;;;;;;;3.13;1.10;;;17.50;68.80;;;;;;10411904;28;20041;-54
2022/02/07 21:34:16;;;;;;;3.60;1.05;;;17.50;68.80;;;;;;10420221;28;20458;-54
2022/02/07 21:39:18;;;;;;;6.45;1.40;;;17.40;68.60;;;;;;10412255;28;20095;-54
2022/02/07 21:44:20;;;;;;;3.20;1.00;;;17.40;68.60;;;;;;10427391;28;20454;-54
2022/02/07 21:49:21;;;;;;;3.17;1.00;;;17.40;68.50;;;;;;10427059;28;20038;-54
2022/02/07 21:54:22;;;;;;;4.80;0.77;;;17.40;68.40;;;;;;10390777;28;20112;-53
2022/02/07 21:59:23;;;;;;;3.75;1.10;;;17.40;68.40;;;;;;10412888;28;20564;-54
2022/02/07 22:04:25;;;;;;;3.78;0.90;;;17.50;68.40;;;;;;10418434;28;20115;-54
2022/02/07 22:09:25;;;;;;;3.00;0.93;;;17.50;68.40;;;;;;10416265;28;20593;-54
2022/02/07 22:19:30;;;;;;;3.35;0.90;;;17.40;68.20;;;;;;10417390;28;20434;-53
2022/02/07 22:24:31;;;;;;;3.78;0.93;;;17.50;68.20;;;;;;10431410;28;20034;-54
2022/02/07 22:29:34;;;;;;;3.05;0.88;;;17.40;68.00;;;;;;10417332;28;20068;-55
2022/02/07 22:34:37;;;;;;;3.53;0.77;;;17.50;68.00;;;;;;10455399;28;20055;-54
2022/02/07 22:39:38;;;;;;;2.78;0.88;;;17.50;67.90;;;;;;10423004;28;20052;-54
2022/02/07 22:44:39;;;;;;;4.50;0.70;;;17.50;67.80;;;;;;10417350;28;20043;-54
2022/02/07 22:49:40;;;;;;;2.28;0.85;;;17.50;67.70;;;;;;10417184;28;20033;-54
2022/02/07 22:54:40;;;;;;;2.30;0.75;;;17.50;67.60;;;;;;10432339;28;20033;-54
2022/02/07 22:59:41;;;;;;;2.58;0.70;;;17.50;67.50;;;;;;10416708;28;20102;-54
2022/02/07 23:04:44;;;;;;;2.58;0.88;;;17.50;67.40;;;;;;10416731;28;20100;-53
2022/02/07 23:15:26;;;;;;;3.63;0.97;;;17.50;67.30;;;;;;10402004;28;20409;-53
2022/02/07 23:21:09;;;;;;;4.30;1.17;;;17.50;67.20;;;;;;10414514;28;20028;-54
2022/02/07 23:31:32;;;;;;;4.20;0.93;;;17.60;67.20;;;;;;10374392;28;20050;-54
2022/02/07 23:36:42;;;;;;;1.77;0.80;;;17.50;67.20;;;;;;10375572;28;20277;-54
2022/02/07 23:41:48;;;;;;;2.05;0.60;;;17.50;67.10;;;;;;10398882;28;20462;-54
2022/02/07 23:46:51;;;;;;;1.52;0.70;;;17.50;67.00;;;;;;10397708;28;20117;-55
2022/02/07 23:52:15;;;;;;;3.05;0.68;;;17.60;66.90;;;;;;10413789;28;20025;-54
2022/02/07 23:57:45;;;;;;;1.92;0.70;;;17.60;66.80;;;;;;10413524;28;20025;-54
